sensor_id;sensor_type;location;lat;lon;timestamp;P1;durP1;ratioP1;P2;durP2;ratioP2
38240;SDS011;24037;49.536;8.500;2023-04-24T00:00:22;1.70;;;0.63;;
38240;SDS011;24037;49.536;8.500;2023-04-24T00:02:49;1.95;;;0.55;;
38240;SDS011;24037;49.536;8.500;2023-04-24T00:05:16;2.58;;;0.75;;
38240;SDS011;24037;49.536;8.500;2023-04-24T00:07:43;1.30;;;0.65;;
38240;SDS011;24037;49.536;8.500;2023-04-24T00:10:13;3.85;;;1.17;;
38240;SDS011;24037;49.536;8.500;2023-04-24T00:12:39;2.63;;;0.65;;
38240;SDS011;24037;49.536;8.500;2023-04-24T00:15:05;1.88;;;0.75;;
38240;SDS011;24037;49.536;8.500;2023-04-24T00:17:32;2.75;;;0.77;;
38240;SDS011;24037;49.536;8.500;2023-04-24T00:19:58;1.17;;;0.60;;
38240;SDS011;24037;49.536;8.500;2023-04-24T00:22:27;2.72;;;0.75;;
38240;SDS011;24037;49.536;8.500;2023-04-24T00:24:54;2.72;;;0.80;;
38240;SDS011;24037;49.536;8.500;2023-04-24T00:27:20;3.95;;;0.88;;
38240;SDS011;24037;49.536;8.500;2023-04-24T00:29:47;3.13;;;0.80;;
38240;SDS011;24037;49.536;8.500;2023-04-24T00:32:13;2.78;;;1.80;;
38240;SDS011;24037;49.536;8.500;2023-04-24T00:34:39;3.90;;;0.80;;
38240;SDS011;24037;49.536;8.500;2023-04-24T00:37:06;2.63;;;1.00;;
38240;SDS011;24037;49.536;8.500;2023-04-24T00:39:32;1.83;;;0.50;;
38240;SDS011;24037;49.536;8.500;2023-04-24T00:41:58;2.03;;;0.77;;
38240;SDS011;24037;49.536;8.500;2023-04-24T00:44:24;3.85;;;0.70;;
38240;SDS011;24037;49.536;8.500;2023-04-24T00:46:51;1.85;;;0.70;;
38240;SDS011;24037;49.536;8.500;2023-04-24T00:49:21;3.15;;;0.93;;
38240;SDS011;24037;49.536;8.500;2023-04-24T00:51:47;3.33;;;0.90;;
38240;SDS011;24037;49.536;8.500;2023-04-24T00:54:14;1.45;;;0.63;;
38240;SDS011;24037;49.536;8.500;2023-04-24T00:56:41;1.42;;;0.55;;
38240;SDS011;24037;49.536;8.500;2023-04-24T00:59:09;2.35;;;0.82;;
38240;SDS011;24037;49.536;8.500;2023-04-24T01:01:38;3.95;;;0.90;;
38240;SDS011;24037;49.536;8.500;2023-04-24T01:04:07;4.33;;;0.80;;
38240;SDS011;24037;49.536;8.500;2023-04-24T01:06:35;2.28;;;0.85;;
38240;SDS011;24037;49.536;8.500;2023-04-24T01:09:04;4.90;;;1.05;;
38240;SDS011;24037;49.536;8.500;2023-04-24T01:11:31;2.40;;;0.80;;
38240;SDS011;24037;49.536;8.500;2023-04-24T01:13:57;1.27;;;0.70;;
38240;SDS011;24037;49.536;8.500;2023-04-24T01:16:24;5.03;;;0.85;;
38240;SDS011;24037;49.536;8.500;2023-04-24T01:18:50;2.30;;;0.85;;
38240;SDS011;24037;49.536;8.500;2023-04-24T01:21:18;2.30;;;1.00;;
38240;SDS011;24037;49.536;8.500;2023-04-24T01:23:47;2.90;;;0.70;;
38240;SDS011;24037;49.536;8.500;2023-04-24T01:26:16;3.00;;;0.70;;
38240;SDS011;24037;49.536;8.500;2023-04-24T01:28:44;3.30;;;0.90;;
38240;SDS011;24037;49.536;8.500;2023-04-24T01:31:10;2.00;;;0.82;;
38240;SDS011;24037;49.536;8.500;2023-04-24T01:33:38;2.45;;;0.80;;
38240;SDS011;24037;49.536;8.500;2023-04-24T01:36:06;2.08;;;0.60;;
38240;SDS011;24037;49.536;8.500;2023-04-24T01:38:33;2.60;;;0.90;;
38240;SDS011;24037;49.536;8.500;2023-04-24T01:40:59;2.95;;;0.82;;
38240;SDS011;24037;49.536;8.500;2023-04-24T01:43:26;1.30;;;0.60;;
38240;SDS011;24037;49.536;8.500;2023-04-24T01:45:52;2.45;;;0.80;;
38240;SDS011;24037;49.536;8.500;2023-04-24T01:48:18;4.70;;;1.52;;
38240;SDS011;24037;49.536;8.500;2023-04-24T01:50:45;3.17;;;0.70;;
38240;SDS011;24037;49.536;8.500;2023-04-24T01:53:12;4.50;;;1.20;;
38240;SDS011;24037;49.536;8.500;2023-04-24T01:55:38;3.42;;;1.02;;
38240;SDS011;24037;49.536;8.500;2023-04-24T01:58:04;4.72;;;0.90;;
38240;SDS011;24037;49.536;8.500;2023-04-24T02:00:31;2.58;;;1.02;;
38240;SDS011;24037;49.536;8.500;2023-04-24T02:02:57;4.13;;;0.80;;
38240;SDS011;24037;49.536;8.500;2023-04-24T02:05:26;4.75;;;0.80;;
38240;SDS011;24037;49.536;8.500;2023-04-24T02:07:52;3.08;;;0.60;;
38240;SDS011;24037;49.536;8.500;2023-04-24T02:10:18;2.63;;;1.17;;
38240;SDS011;24037;49.536;8.500;2023-04-24T02:12:44;2.35;;;0.90;;
38240;SDS011;24037;49.536;8.500;2023-04-24T02:15:10;2.30;;;1.23;;
38240;SDS011;24037;49.536;8.500;2023-04-24T02:17:37;1.85;;;0.85;;
38240;SDS011;24037;49.536;8.500;2023-04-24T02:20:04;3.45;;;0.80;;
38240;SDS011;24037;49.536;8.500;2023-04-24T02:22:32;1.35;;;0.85;;
38240;SDS011;24037;49.536;8.500;2023-04-24T02:25:01;5.68;;;1.00;;
38240;SDS011;24037;49.536;8.500;2023-04-24T02:27:27;3.50;;;0.82;;
38240;SDS011;24037;49.536;8.500;2023-04-24T02:29:53;2.90;;;1.42;;
38240;SDS011;24037;49.536;8.500;2023-04-24T02:32:20;4.78;;;1.50;;
38240;SDS011;24037;49.536;8.500;2023-04-24T02:34:46;3.05;;;1.25;;
38240;SDS011;24037;49.536;8.500;2023-04-24T02:37:12;5.38;;;1.55;;
38240;SDS011;24037;49.536;8.500;2023-04-24T02:39:38;8.00;;;1.80;;
38240;SDS011;24037;49.536;8.500;2023-04-24T02:42:05;4.93;;;1.90;;
38240;SDS011;24037;49.536;8.500;2023-04-24T02:44:31;5.88;;;2.13;;
38240;SDS011;24037;49.536;8.500;2023-04-24T02:46:57;3.33;;;1.30;;
38240;SDS011;24037;49.536;8.500;2023-04-24T02:49:23;3.80;;;1.50;;
38240;SDS011;24037;49.536;8.500;2023-04-24T02:51:49;6.55;;;1.52;;
38240;SDS011;24037;49.536;8.500;2023-04-24T02:54:15;2.90;;;1.77;;
38240;SDS011;24037;49.536;8.500;2023-04-24T02:56:42;2.97;;;1.48;;
38240;SDS011;24037;49.536;8.500;2023-04-24T02:59:08;2.67;;;1.60;;
38240;SDS011;24037;49.536;8.500;2023-04-24T03:01:35;8.63;;;3.25;;
38240;SDS011;24037;49.536;8.500;2023-04-24T03:04:02;4.05;;;1.83;;
38240;SDS011;24037;49.536;8.500;2023-04-24T03:06:29;3.42;;;1.50;;
38240;SDS011;24037;49.536;8.500;2023-04-24T03:08:56;2.80;;;1.55;;
38240;SDS011;24037;49.536;8.500;2023-04-24T03:11:22;3.70;;;1.90;;
38240;SDS011;24037;49.536;8.500;2023-04-24T03:13:49;3.85;;;2.00;;
38240;SDS011;24037;49.536;8.500;2023-04-24T03:16:15;1.90;;;1.60;;
38240;SDS011;24037;49.536;8.500;2023-04-24T03:18:41;3.00;;;1.63;;
38240;SDS011;24037;49.536;8.500;2023-04-24T03:21:08;2.72;;;1.83;;
38240;SDS011;24037;49.536;8.500;2023-04-24T03:23:35;3.97;;;2.00;;
38240;SDS011;24037;49.536;8.500;2023-04-24T03:26:01;3.15;;;1.88;;
38240;SDS011;24037;49.536;8.500;2023-04-24T03:28:28;5.15;;;2.30;;
38240;SDS011;24037;49.536;8.500;2023-04-24T03:31:00;3.80;;;2.20;;
38240;SDS011;24037;49.536;8.500;2023-04-24T03:33:30;4.63;;;2.30;;
38240;SDS011;24037;49.536;8.500;2023-04-24T03:36:00;3.20;;;2.35;;
38240;SDS011;24037;49.536;8.500;2023-04-24T03:38:32;3.30;;;2.08;;
38240;SDS011;24037;49.536;8.500;2023-04-24T03:41:02;3.85;;;2.13;;
38240;SDS011;24037;49.536;8.500;2023-04-24T03:43:40;3.85;;;2.08;;
38240;SDS011;24037;49.536;8.500;2023-04-24T03:46:07;4.03;;;1.85;;
38240;SDS011;24037;49.536;8.500;2023-04-24T03:48:38;6.78;;;2.13;;
38240;SDS011;24037;49.536;8.500;2023-04-24T03:51:06;3.35;;;1.67;;
38240;SDS011;24037;49.536;8.500;2023-04-24T03:53:34;3.13;;;1.50;;
38240;SDS011;24037;49.536;8.500;2023-04-24T03:56:00;2.63;;;1.35;;
38240;SDS011;24037;49.536;8.500;2023-04-24T03:58:27;2.05;;;1.45;;
38240;SDS011;24037;49.536;8.500;2023-04-24T04:00:55;2.15;;;1.40;;
38240;SDS011;24037;49.536;8.500;2023-04-24T04:03:44;3.25;;;1.67;;
38240;SDS011;24037;49.536;8.500;2023-04-24T04:06:10;2.53;;;1.70;;
38240;SDS011;24037;49.536;8.500;2023-04-24T04:08:37;1.90;;;1.48;;
38240;SDS011;24037;49.536;8.500;2023-04-24T04:11:04;3.53;;;1.42;;
38240;SDS011;24037;49.536;8.500;2023-04-24T04:13:30;2.35;;;1.70;;
38240;SDS011;24037;49.536;8.500;2023-04-24T04:15:57;3.67;;;2.42;;
38240;SDS011;24037;49.536;8.500;2023-04-24T04:18:23;3.45;;;1.98;;
38240;SDS011;24037;49.536;8.500;2023-04-24T04:20:49;4.38;;;2.40;;
38240;SDS011;24037;49.536;8.500;2023-04-24T04:23:16;2.92;;;1.95;;
38240;SDS011;24037;49.536;8.500;2023-04-24T04:25:56;3.63;;;2.50;;
38240;SDS011;24037;49.536;8.500;2023-04-24T04:28:27;4.72;;;2.50;;
38240;SDS011;24037;49.536;8.500;2023-04-24T04:30:56;4.57;;;2.28;;
38240;SDS011;24037;49.536;8.500;2023-04-24T04:33:23;7.93;;;2.83;;
38240;SDS011;24037;49.536;8.500;2023-04-24T04:35:50;3.92;;;2.20;;
38240;SDS011;24037;49.536;8.500;2023-04-24T04:38:23;3.80;;;2.45;;
38240;SDS011;24037;49.536;8.500;2023-04-24T04:41:06;4.72;;;2.53;;
38240;SDS011;24037;49.536;8.500;2023-04-24T04:43:33;4.10;;;2.45;;
38240;SDS011;24037;49.536;8.500;2023-04-24T04:46:00;4.35;;;2.78;;
38240;SDS011;24037;49.536;8.500;2023-04-24T04:48:42;3.95;;;2.92;;
38240;SDS011;24037;49.536;8.500;2023-04-24T04:51:09;7.22;;;2.63;;
38240;SDS011;24037;49.536;8.500;2023-04-24T04:53:35;6.40;;;2.95;;
38240;SDS011;24037;49.536;8.500;2023-04-24T04:56:02;4.70;;;2.92;;
38240;SDS011;24037;49.536;8.500;2023-04-24T04:58:35;5.88;;;2.88;;
38240;SDS011;24037;49.536;8.500;2023-04-24T05:01:02;4.57;;;2.63;;
38240;SDS011;24037;49.536;8.500;2023-04-24T05:03:32;3.10;;;2.20;;
38240;SDS011;24037;49.536;8.500;2023-04-24T05:06:03;3.13;;;2.05;;
38240;SDS011;24037;49.536;8.500;2023-04-24T05:08:33;4.85;;;2.50;;
38240;SDS011;24037;49.536;8.500;2023-04-24T05:10:59;4.57;;;2.70;;
38240;SDS011;24037;49.536;8.500;2023-04-24T05:13:28;3.13;;;1.85;;
38240;SDS011;24037;49.536;8.500;2023-04-24T05:15:54;4.32;;;2.15;;
38240;SDS011;24037;49.536;8.500;2023-04-24T05:18:20;4.40;;;1.98;;
38240;SDS011;24037;49.536;8.500;2023-04-24T05:20:47;4.32;;;1.95;;
38240;SDS011;24037;49.536;8.500;2023-04-24T05:23:13;6.57;;;1.88;;
38240;SDS011;24037;49.536;8.500;2023-04-24T05:25:42;3.65;;;1.95;;
38240;SDS011;24037;49.536;8.500;2023-04-24T05:28:11;4.53;;;2.60;;
38240;SDS011;24037;49.536;8.500;2023-04-24T05:30:38;5.03;;;2.38;;
38240;SDS011;24037;49.536;8.500;2023-04-24T05:33:05;4.13;;;1.90;;
38240;SDS011;24037;49.536;8.500;2023-04-24T05:35:34;3.35;;;2.30;;
38240;SDS011;24037;49.536;8.500;2023-04-24T05:38:00;4.05;;;2.45;;
38240;SDS011;24037;49.536;8.500;2023-04-24T05:40:26;3.92;;;2.20;;
38240;SDS011;24037;49.536;8.500;2023-04-24T05:42:53;4.00;;;2.70;;
38240;SDS011;24037;49.536;8.500;2023-04-24T05:45:20;6.57;;;3.38;;
38240;SDS011;24037;49.536;8.500;2023-04-24T05:47:46;6.80;;;3.75;;
38240;SDS011;24037;49.536;8.500;2023-04-24T05:50:13;3.85;;;2.38;;
38240;SDS011;24037;49.536;8.500;2023-04-24T05:52:40;4.82;;;4.20;;
38240;SDS011;24037;49.536;8.500;2023-04-24T05:55:19;5.65;;;3.90;;
38240;SDS011;24037;49.536;8.500;2023-04-24T05:57:46;6.85;;;3.35;;
38240;SDS011;24037;49.536;8.500;2023-04-24T06:00:12;5.43;;;3.28;;
38240;SDS011;24037;49.536;8.500;2023-04-24T06:02:39;6.00;;;3.10;;
38240;SDS011;24037;49.536;8.500;2023-04-24T06:05:08;5.13;;;3.05;;
38240;SDS011;24037;49.536;8.500;2023-04-24T06:07:35;5.43;;;3.40;;
38240;SDS011;24037;49.536;8.500;2023-04-24T06:10:04;5.97;;;3.90;;
38240;SDS011;24037;49.536;8.500;2023-04-24T06:12:37;7.72;;;4.03;;
38240;SDS011;24037;49.536;8.500;2023-04-24T06:15:09;6.05;;;2.92;;
38240;SDS011;24037;49.536;8.500;2023-04-24T06:17:49;5.13;;;2.83;;
38240;SDS011;24037;49.536;8.500;2023-04-24T06:20:17;5.35;;;2.58;;
38240;SDS011;24037;49.536;8.500;2023-04-24T06:22:43;5.35;;;3.25;;
38240;SDS011;24037;49.536;8.500;2023-04-24T06:25:10;8.20;;;2.70;;
38240;SDS011;24037;49.536;8.500;2023-04-24T06:27:36;8.75;;;3.35;;
38240;SDS011;24037;49.536;8.500;2023-04-24T06:30:02;6.88;;;2.50;;
38240;SDS011;24037;49.536;8.500;2023-04-24T06:32:29;5.28;;;3.00;;
38240;SDS011;24037;49.536;8.500;2023-04-24T06:34:56;6.78;;;2.88;;
38240;SDS011;24037;49.536;8.500;2023-04-24T06:37:22;4.50;;;2.50;;
38240;SDS011;24037;49.536;8.500;2023-04-24T06:39:48;5.38;;;2.50;;
38240;SDS011;24037;49.536;8.500;2023-04-24T06:42:14;3.97;;;2.50;;
38240;SDS011;24037;49.536;8.500;2023-04-24T06:44:43;4.10;;;2.60;;
38240;SDS011;24037;49.536;8.500;2023-04-24T06:47:09;5.25;;;2.92;;
38240;SDS011;24037;49.536;8.500;2023-04-24T06:49:36;3.63;;;2.22;;
38240;SDS011;24037;49.536;8.500;2023-04-24T06:52:03;4.35;;;1.98;;
38240;SDS011;24037;49.536;8.500;2023-04-24T06:54:30;8.40;;;2.65;;
38240;SDS011;24037;49.536;8.500;2023-04-24T06:56:56;4.03;;;2.47;;
38240;SDS011;24037;49.536;8.500;2023-04-24T06:59:23;7.72;;;2.67;;
38240;SDS011;24037;49.536;8.500;2023-04-24T07:01:50;3.50;;;1.88;;
38240;SDS011;24037;49.536;8.500;2023-04-24T07:04:16;1.63;;;1.15;;
38240;SDS011;24037;49.536;8.500;2023-04-24T07:06:44;2.88;;;1.73;;
38240;SDS011;24037;49.536;8.500;2023-04-24T07:09:11;2.92;;;1.15;;
38240;SDS011;24037;49.536;8.500;2023-04-24T07:11:39;2.25;;;1.25;;
38240;SDS011;24037;49.536;8.500;2023-04-24T07:14:06;2.80;;;1.45;;
38240;SDS011;24037;49.536;8.500;2023-04-24T07:16:33;3.30;;;1.25;;
38240;SDS011;24037;49.536;8.500;2023-04-24T07:18:59;9.07;;;1.92;;
38240;SDS011;24037;49.536;8.500;2023-04-24T07:21:25;6.38;;;1.15;;
38240;SDS011;24037;49.536;8.500;2023-04-24T07:23:52;3.88;;;1.13;;
38240;SDS011;24037;49.536;8.500;2023-04-24T07:26:19;2.30;;;0.90;;
38240;SDS011;24037;49.536;8.500;2023-04-24T07:28:46;1.33;;;0.70;;
38240;SDS011;24037;49.536;8.500;2023-04-24T07:31:12;2.40;;;1.27;;
38240;SDS011;24037;49.536;8.500;2023-04-24T07:33:38;2.67;;;1.00;;
38240;SDS011;24037;49.536;8.500;2023-04-24T07:36:05;1.40;;;0.75;;
38240;SDS011;24037;49.536;8.500;2023-04-24T07:38:31;3.13;;;0.88;;
38240;SDS011;24037;49.536;8.500;2023-04-24T07:40:57;5.95;;;1.25;;
38240;SDS011;24037;49.536;8.500;2023-04-24T07:43:24;8.75;;;1.33;;
38240;SDS011;24037;49.536;8.500;2023-04-24T07:45:50;2.33;;;1.17;;
38240;SDS011;24037;49.536;8.500;2023-04-24T07:48:16;1.42;;;0.95;;
38240;SDS011;24037;49.536;8.500;2023-04-24T07:50:43;3.78;;;1.23;;
38240;SDS011;24037;49.536;8.500;2023-04-24T07:53:10;2.35;;;1.10;;
38240;SDS011;24037;49.536;8.500;2023-04-24T07:55:37;2.08;;;0.80;;
38240;SDS011;24037;49.536;8.500;2023-04-24T07:58:04;1.88;;;1.25;;
38240;SDS011;24037;49.536;8.500;2023-04-24T08:00:30;2.45;;;2.15;;
38240;SDS011;24037;49.536;8.500;2023-04-24T08:02:56;2.17;;;1.20;;
38240;SDS011;24037;49.536;8.500;2023-04-24T08:05:22;3.40;;;1.17;;
38240;SDS011;24037;49.536;8.500;2023-04-24T08:07:50;2.08;;;0.93;;
38240;SDS011;24037;49.536;8.500;2023-04-24T08:10:17;2.17;;;0.90;;
38240;SDS011;24037;49.536;8.500;2023-04-24T08:12:43;1.88;;;1.00;;
38240;SDS011;24037;49.536;8.500;2023-04-24T08:15:09;1.90;;;1.20;;
38240;SDS011;24037;49.536;8.500;2023-04-24T08:17:35;3.03;;;1.10;;
38240;SDS011;24037;49.536;8.500;2023-04-24T08:20:02;1.60;;;1.13;;
38240;SDS011;24037;49.536;8.500;2023-04-24T08:22:30;1.75;;;1.00;;
38240;SDS011;24037;49.536;8.500;2023-04-24T08:24:57;1.48;;;0.90;;
38240;SDS011;24037;49.536;8.500;2023-04-24T08:27:25;2.95;;;1.10;;
38240;SDS011;24037;49.536;8.500;2023-04-24T08:29:55;2.60;;;1.63;;
38240;SDS011;24037;49.536;8.500;2023-04-24T08:32:22;3.05;;;1.33;;
38240;SDS011;24037;49.536;8.500;2023-04-24T08:34:48;2.63;;;1.35;;
38240;SDS011;24037;49.536;8.500;2023-04-24T08:37:14;1.52;;;1.00;;
38240;SDS011;24037;49.536;8.500;2023-04-24T08:39:41;3.90;;;1.50;;
38240;SDS011;24037;49.536;8.500;2023-04-24T08:42:07;3.90;;;1.40;;
38240;SDS011;24037;49.536;8.500;2023-04-24T08:44:35;2.30;;;1.20;;
38240;SDS011;24037;49.536;8.500;2023-04-24T08:47:02;2.50;;;1.42;;
38240;SDS011;24037;49.536;8.500;2023-04-24T08:49:28;2.22;;;1.20;;
38240;SDS011;24037;49.536;8.500;2023-04-24T08:51:55;4.30;;;1.48;;
38240;SDS011;24037;49.536;8.500;2023-04-24T08:54:22;2.70;;;1.55;;
38240;SDS011;24037;49.536;8.500;2023-04-24T08:56:48;3.97;;;1.88;;
38240;SDS011;24037;49.536;8.500;2023-04-24T08:59:15;2.80;;;1.83;;
38240;SDS011;24037;49.536;8.500;2023-04-24T09:01:42;4.75;;;1.90;;
38240;SDS011;24037;49.536;8.500;2023-04-24T09:04:12;3.03;;;2.13;;
38240;SDS011;24037;49.536;8.500;2023-04-24T09:06:41;3.17;;;2.00;;
38240;SDS011;24037;49.536;8.500;2023-04-24T09:09:08;2.97;;;1.88;;
38240;SDS011;24037;49.536;8.500;2023-04-24T09:11:37;2.40;;;1.88;;
38240;SDS011;24037;49.536;8.500;2023-04-24T09:14:03;3.10;;;1.70;;
38240;SDS011;24037;49.536;8.500;2023-04-24T09:16:30;2.83;;;1.48;;
38240;SDS011;24037;49.536;8.500;2023-04-24T09:18:58;3.85;;;1.55;;
38240;SDS011;24037;49.536;8.500;2023-04-24T09:21:25;2.38;;;1.30;;
38240;SDS011;24037;49.536;8.500;2023-04-24T09:24:01;2.60;;;1.30;;
38240;SDS011;24037;49.536;8.500;2023-04-24T09:26:40;3.30;;;1.83;;
38240;SDS011;24037;49.536;8.500;2023-04-24T09:29:06;3.30;;;1.52;;
38240;SDS011;24037;49.536;8.500;2023-04-24T09:31:32;2.30;;;1.50;;
38240;SDS011;24037;49.536;8.500;2023-04-24T09:34:02;2.38;;;1.38;;
38240;SDS011;24037;49.536;8.500;2023-04-24T09:36:32;2.85;;;1.88;;
38240;SDS011;24037;49.536;8.500;2023-04-24T09:39:03;3.55;;;1.73;;
38240;SDS011;24037;49.536;8.500;2023-04-24T09:41:31;4.13;;;1.67;;
38240;SDS011;24037;49.536;8.500;2023-04-24T09:46:59;3.30;;;1.63;;
38240;SDS011;24037;49.536;8.500;2023-04-24T09:49:26;2.45;;;1.60;;
38240;SDS011;24037;49.536;8.500;2023-04-24T09:52:03;1.70;;;1.27;;
38240;SDS011;24037;49.536;8.500;2023-04-24T09:54:37;6.63;;;1.60;;
38240;SDS011;24037;49.536;8.500;2023-04-24T09:57:04;3.05;;;1.63;;
38240;SDS011;24037;49.536;8.500;2023-04-24T09:59:32;4.40;;;2.85;;
38240;SDS011;24037;49.536;8.500;2023-04-24T10:02:01;6.40;;;2.60;;
38240;SDS011;24037;49.536;8.500;2023-04-24T10:04:28;4.82;;;2.30;;
38240;SDS011;24037;49.536;8.500;2023-04-24T10:06:56;3.88;;;2.47;;
38240;SDS011;24037;49.536;8.500;2023-04-24T10:09:23;2.75;;;1.50;;
38240;SDS011;24037;49.536;8.500;2023-04-24T10:11:51;3.47;;;1.55;;
38240;SDS011;24037;49.536;8.500;2023-04-24T10:14:23;4.78;;;1.25;;
38240;SDS011;24037;49.536;8.500;2023-04-24T10:16:51;1.52;;;1.08;;
38240;SDS011;24037;49.536;8.500;2023-04-24T10:19:19;2.03;;;0.90;;
38240;SDS011;24037;49.536;8.500;2023-04-24T10:21:46;1.92;;;1.05;;
38240;SDS011;24037;49.536;8.500;2023-04-24T10:24:16;1.15;;;0.75;;
38240;SDS011;24037;49.536;8.500;2023-04-24T10:26:44;2.05;;;0.85;;
38240;SDS011;24037;49.536;8.500;2023-04-24T10:29:12;3.13;;;0.93;;
38240;SDS011;24037;49.536;8.500;2023-04-24T10:31:40;2.90;;;0.75;;
38240;SDS011;24037;49.536;8.500;2023-04-24T10:34:09;1.92;;;1.00;;
38240;SDS011;24037;49.536;8.500;2023-04-24T10:36:36;1.67;;;0.90;;
38240;SDS011;24037;49.536;8.500;2023-04-24T10:39:07;2.00;;;1.00;;
38240;SDS011;24037;49.536;8.500;2023-04-24T10:41:36;2.15;;;1.13;;
38240;SDS011;24037;49.536;8.500;2023-04-24T10:44:04;4.10;;;1.67;;
38240;SDS011;24037;49.536;8.500;2023-04-24T10:46:33;3.85;;;1.30;;
38240;SDS011;24037;49.536;8.500;2023-04-24T10:49:03;2.95;;;1.10;;
38240;SDS011;24037;49.536;8.500;2023-04-24T10:51:50;3.92;;;1.45;;
38240;SDS011;24037;49.536;8.500;2023-04-24T10:54:28;4.10;;;1.70;;
38240;SDS011;24037;49.536;8.500;2023-04-24T10:59:44;4.43;;;1.45;;
38240;SDS011;24037;49.536;8.500;2023-04-24T11:02:11;3.22;;;1.77;;
38240;SDS011;24037;49.536;8.500;2023-04-24T11:04:41;3.73;;;1.63;;
38240;SDS011;24037;49.536;8.500;2023-04-24T11:07:10;3.53;;;1.83;;
38240;SDS011;24037;49.536;8.500;2023-04-24T11:09:37;4.50;;;1.52;;
38240;SDS011;24037;49.536;8.500;2023-04-24T11:12:09;2.95;;;1.48;;
38240;SDS011;24037;49.536;8.500;2023-04-24T11:17:31;4.70;;;1.70;;
38240;SDS011;24037;49.536;8.500;2023-04-24T11:20:02;4.55;;;2.00;;
38240;SDS011;24037;49.536;8.500;2023-04-24T11:22:32;5.22;;;1.88;;
38240;SDS011;24037;49.536;8.500;2023-04-24T11:27:38;3.40;;;1.55;;
38240;SDS011;24037;49.536;8.500;2023-04-24T11:30:07;3.15;;;1.88;;
38240;SDS011;24037;49.536;8.500;2023-04-24T11:32:36;7.13;;;2.05;;
38240;SDS011;24037;49.536;8.500;2023-04-24T11:35:16;2.88;;;1.60;;
38240;SDS011;24037;49.536;8.500;2023-04-24T11:37:48;2.72;;;1.75;;
38240;SDS011;24037;49.536;8.500;2023-04-24T11:40:16;3.45;;;2.00;;
38240;SDS011;24037;49.536;8.500;2023-04-24T11:42:49;3.17;;;2.38;;
38240;SDS011;24037;49.536;8.500;2023-04-24T11:45:17;3.85;;;2.40;;
38240;SDS011;24037;49.536;8.500;2023-04-24T11:47:47;3.67;;;2.00;;
38240;SDS011;24037;49.536;8.500;2023-04-24T11:50:15;5.65;;;2.13;;
38240;SDS011;24037;49.536;8.500;2023-04-24T11:52:43;3.53;;;2.40;;
38240;SDS011;24037;49.536;8.500;2023-04-24T11:57:42;3.03;;;1.95;;
38240;SDS011;24037;49.536;8.500;2023-04-24T12:00:15;4.90;;;2.50;;
38240;SDS011;24037;49.536;8.500;2023-04-24T12:02:46;5.40;;;1.85;;
38240;SDS011;24037;49.536;8.500;2023-04-24T12:05:26;7.88;;;2.03;;
38240;SDS011;24037;49.536;8.500;2023-04-24T12:07:53;4.47;;;2.20;;
38240;SDS011;24037;49.536;8.500;2023-04-24T12:10:23;5.38;;;2.05;;
38240;SDS011;24037;49.536;8.500;2023-04-24T12:12:51;3.25;;;1.92;;
38240;SDS011;24037;49.536;8.500;2023-04-24T12:15:21;4.57;;;2.22;;
38240;SDS011;24037;49.536;8.500;2023-04-24T12:17:47;3.57;;;1.77;;
38240;SDS011;24037;49.536;8.500;2023-04-24T12:20:16;3.15;;;1.98;;
38240;SDS011;24037;49.536;8.500;2023-04-24T12:25:15;3.92;;;2.22;;
38240;SDS011;24037;49.536;8.500;2023-04-24T12:27:43;3.08;;;2.28;;
38240;SDS011;24037;49.536;8.500;2023-04-24T12:30:14;4.10;;;2.13;;
38240;SDS011;24037;49.536;8.500;2023-04-24T12:32:45;4.88;;;2.83;;
38240;SDS011;24037;49.536;8.500;2023-04-24T12:35:18;3.28;;;2.38;;
38240;SDS011;24037;49.536;8.500;2023-04-24T12:37:45;8.98;;;3.17;;
38240;SDS011;24037;49.536;8.500;2023-04-24T12:40:12;4.53;;;2.58;;
38240;SDS011;24037;49.536;8.500;2023-04-24T12:42:45;3.38;;;2.40;;
38240;SDS011;24037;49.536;8.500;2023-04-24T12:45:13;7.95;;;2.65;;
38240;SDS011;24037;49.536;8.500;2023-04-24T12:47:41;4.68;;;2.65;;
38240;SDS011;24037;49.536;8.500;2023-04-24T12:50:08;6.80;;;3.30;;
38240;SDS011;24037;49.536;8.500;2023-04-24T12:52:36;5.05;;;3.00;;
38240;SDS011;24037;49.536;8.500;2023-04-24T12:55:03;6.03;;;2.45;;
38240;SDS011;24037;49.536;8.500;2023-04-24T12:57:30;5.35;;;2.70;;
38240;SDS011;24037;49.536;8.500;2023-04-24T12:59:57;4.50;;;2.67;;
38240;SDS011;24037;49.536;8.500;2023-04-24T13:02:24;8.30;;;2.80;;
38240;SDS011;24037;49.536;8.500;2023-04-24T13:04:52;4.75;;;2.10;;
38240;SDS011;24037;49.536;8.500;2023-04-24T13:07:19;6.93;;;2.75;;
38240;SDS011;24037;49.536;8.500;2023-04-24T13:09:45;2.55;;;1.77;;
38240;SDS011;24037;49.536;8.500;2023-04-24T13:12:13;8.38;;;2.90;;
38240;SDS011;24037;49.536;8.500;2023-04-24T13:14:40;5.75;;;2.95;;
38240;SDS011;24037;49.536;8.500;2023-04-24T13:17:07;4.53;;;2.25;;
38240;SDS011;24037;49.536;8.500;2023-04-24T13:19:36;6.82;;;2.50;;
38240;SDS011;24037;49.536;8.500;2023-04-24T13:22:04;4.05;;;2.10;;
38240;SDS011;24037;49.536;8.500;2023-04-24T13:24:31;3.70;;;2.10;;
38240;SDS011;24037;49.536;8.500;2023-04-24T13:26:57;2.60;;;1.98;;
38240;SDS011;24037;49.536;8.500;2023-04-24T13:29:24;5.97;;;2.67;;
38240;SDS011;24037;49.536;8.500;2023-04-24T13:31:50;6.63;;;2.05;;
38240;SDS011;24037;49.536;8.500;2023-04-24T13:34:17;4.55;;;2.75;;
38240;SDS011;24037;49.536;8.500;2023-04-24T13:36:43;5.28;;;3.67;;
38240;SDS011;24037;49.536;8.500;2023-04-24T13:39:09;7.00;;;3.45;;
38240;SDS011;24037;49.536;8.500;2023-04-24T13:41:36;6.55;;;3.20;;
38240;SDS011;24037;49.536;8.500;2023-04-24T13:44:02;9.57;;;3.47;;
38240;SDS011;24037;49.536;8.500;2023-04-24T13:46:29;6.28;;;2.70;;
38240;SDS011;24037;49.536;8.500;2023-04-24T13:48:56;4.70;;;2.08;;
38240;SDS011;24037;49.536;8.500;2023-04-24T13:51:23;5.50;;;3.00;;
38240;SDS011;24037;49.536;8.500;2023-04-24T13:53:52;3.87;;;2.40;;
38240;SDS011;24037;49.536;8.500;2023-04-24T13:56:19;2.95;;;1.50;;
38240;SDS011;24037;49.536;8.500;2023-04-24T13:58:45;4.20;;;2.10;;
38240;SDS011;24037;49.536;8.500;2023-04-24T14:01:12;8.35;;;4.47;;
38240;SDS011;24037;49.536;8.500;2023-04-24T14:03:38;4.18;;;2.85;;
38240;SDS011;24037;49.536;8.500;2023-04-24T14:06:04;3.95;;;2.10;;
38240;SDS011;24037;49.536;8.500;2023-04-24T14:08:32;7.05;;;3.33;;
38240;SDS011;24037;49.536;8.500;2023-04-24T14:10:58;3.38;;;2.20;;
38240;SDS011;24037;49.536;8.500;2023-04-24T14:13:24;4.03;;;1.70;;
38240;SDS011;24037;49.536;8.500;2023-04-24T14:15:51;4.65;;;1.85;;
38240;SDS011;24037;49.536;8.500;2023-04-24T14:18:18;4.65;;;2.42;;
38240;SDS011;24037;49.536;8.500;2023-04-24T14:20:44;5.80;;;2.25;;
38240;SDS011;24037;49.536;8.500;2023-04-24T14:23:10;3.08;;;2.22;;
38240;SDS011;24037;49.536;8.500;2023-04-24T14:25:37;5.65;;;3.50;;
38240;SDS011;24037;49.536;8.500;2023-04-24T14:28:03;6.93;;;3.63;;
38240;SDS011;24037;49.536;8.500;2023-04-24T14:30:31;7.68;;;2.92;;
38240;SDS011;24037;49.536;8.500;2023-04-24T14:32:57;3.15;;;1.67;;
38240;SDS011;24037;49.536;8.500;2023-04-24T14:35:23;5.88;;;3.13;;
38240;SDS011;24037;49.536;8.500;2023-04-24T14:37:49;5.38;;;2.90;;
38240;SDS011;24037;49.536;8.500;2023-04-24T14:40:16;3.65;;;2.50;;
38240;SDS011;24037;49.536;8.500;2023-04-24T14:42:42;2.75;;;1.90;;
38240;SDS011;24037;49.536;8.500;2023-04-24T14:45:09;2.67;;;1.50;;
38240;SDS011;24037;49.536;8.500;2023-04-24T14:47:36;3.80;;;1.98;;
38240;SDS011;24037;49.536;8.500;2023-04-24T14:50:02;4.38;;;2.25;;
38240;SDS011;24037;49.536;8.500;2023-04-24T14:52:29;2.63;;;1.60;;
38240;SDS011;24037;49.536;8.500;2023-04-24T14:54:55;4.03;;;2.10;;
38240;SDS011;24037;49.536;8.500;2023-04-24T14:57:22;3.58;;;2.33;;
38240;SDS011;24037;49.536;8.500;2023-04-24T14:59:48;3.25;;;2.10;;
38240;SDS011;24037;49.536;8.500;2023-04-24T15:02:17;4.60;;;1.98;;
38240;SDS011;24037;49.536;8.500;2023-04-24T15:04:43;3.25;;;2.10;;
38240;SDS011;24037;49.536;8.500;2023-04-24T15:07:09;5.10;;;2.42;;